sensor_id;sensor_type;location;lat;lon;timestamp;P1;durP1;ratioP1;P2;durP2;ratioP2
13147;SDS011;6639;50.956;4.242;2023-04-24T00:00:54;20.65;;;14.60;;
13147;SDS011;6639;50.956;4.242;2023-04-24T00:03:22;19.70;;;13.43;;
13147;SDS011;6639;50.956;4.242;2023-04-24T00:05:49;20.73;;;14.70;;
13147;SDS011;6639;50.956;4.242;2023-04-24T00:08:17;18.13;;;14.43;;
13147;SDS011;6639;50.956;4.242;2023-04-24T00:10:44;19.50;;;14.02;;
13147;SDS011;6639;50.956;4.242;2023-04-24T00:13:12;19.60;;;14.85;;
13147;SDS011;6639;50.956;4.242;2023-04-24T00:15:39;25.52;;;15.07;;
13147;SDS011;6639;50.956;4.242;2023-04-24T00:18:06;17.45;;;14.63;;
13147;SDS011;6639;50.956;4.242;2023-04-24T00:20:33;18.45;;;14.57;;
13147;SDS011;6639;50.956;4.242;2023-04-24T00:23:01;15.15;;;13.60;;
13147;SDS011;6639;50.956;4.242;2023-04-24T00:25:27;25.15;;;14.23;;
13147;SDS011;6639;50.956;4.242;2023-04-24T00:27:54;16.17;;;14.57;;
13147;SDS011;6639;50.956;4.242;2023-04-24T00:30:23;17.90;;;14.70;;
13147;SDS011;6639;50.956;4.242;2023-04-24T00:32:50;14.95;;;13.40;;
13147;SDS011;6639;50.956;4.242;2023-04-24T00:35:16;19.42;;;15.65;;
13147;SDS011;6639;50.956;4.242;2023-04-24T00:37:44;17.55;;;14.60;;
13147;SDS011;6639;50.956;4.242;2023-04-24T00:40:11;15.48;;;13.52;;
13147;SDS011;6639;50.956;4.242;2023-04-24T00:42:39;18.27;;;14.02;;
13147;SDS011;6639;50.956;4.242;2023-04-24T00:45:07;22.23;;;15.05;;
13147;SDS011;6639;50.956;4.242;2023-04-24T00:47:35;15.63;;;14.00;;
13147;SDS011;6639;50.956;4.242;2023-04-24T00:50:03;16.48;;;14.30;;
13147;SDS011;6639;50.956;4.242;2023-04-24T00:52:31;19.90;;;13.95;;
13147;SDS011;6639;50.956;4.242;2023-04-24T00:54:58;15.80;;;14.02;;
13147;SDS011;6639;50.956;4.242;2023-04-24T00:57:25;17.80;;;12.82;;
13147;SDS011;6639;50.956;4.242;2023-04-24T00:59:53;19.45;;;13.93;;
13147;SDS011;6639;50.956;4.242;2023-04-24T01:02:21;14.65;;;13.18;;
13147;SDS011;6639;50.956;4.242;2023-04-24T01:04:50;21.00;;;15.02;;
13147;SDS011;6639;50.956;4.242;2023-04-24T01:07:18;17.00;;;14.10;;
13147;SDS011;6639;50.956;4.242;2023-04-24T01:09:46;16.70;;;13.95;;
13147;SDS011;6639;50.956;4.242;2023-04-24T01:12:16;15.98;;;13.82;;
13147;SDS011;6639;50.956;4.242;2023-04-24T01:14:43;15.77;;;13.35;;
13147;SDS011;6639;50.956;4.242;2023-04-24T01:17:10;20.52;;;14.07;;
13147;SDS011;6639;50.956;4.242;2023-04-24T01:19:37;17.58;;;12.80;;
13147;SDS011;6639;50.956;4.242;2023-04-24T01:22:09;14.80;;;12.98;;
13147;SDS011;6639;50.956;4.242;2023-04-24T01:24:37;17.42;;;14.18;;
13147;SDS011;6639;50.956;4.242;2023-04-24T01:27:04;18.08;;;12.10;;
13147;SDS011;6639;50.956;4.242;2023-04-24T01:29:31;13.43;;;12.02;;
13147;SDS011;6639;50.956;4.242;2023-04-24T01:31:58;15.95;;;12.30;;
13147;SDS011;6639;50.956;4.242;2023-04-24T01:34:25;14.63;;;11.77;;
13147;SDS011;6639;50.956;4.242;2023-04-24T01:36:52;16.45;;;11.98;;
13147;SDS011;6639;50.956;4.242;2023-04-24T01:39:22;13.45;;;12.23;;
13147;SDS011;6639;50.956;4.242;2023-04-24T01:41:50;14.05;;;11.40;;
13147;SDS011;6639;50.956;4.242;2023-04-24T01:44:18;12.15;;;10.95;;
13147;SDS011;6639;50.956;4.242;2023-04-24T01:46:45;13.15;;;9.63;;
13147;SDS011;6639;50.956;4.242;2023-04-24T01:49:13;11.57;;;8.57;;
13147;SDS011;6639;50.956;4.242;2023-04-24T01:51:40;9.00;;;7.85;;
13147;SDS011;6639;50.956;4.242;2023-04-24T01:54:07;9.43;;;8.10;;
13147;SDS011;6639;50.956;4.242;2023-04-24T01:56:35;8.10;;;6.93;;
13147;SDS011;6639;50.956;4.242;2023-04-24T01:59:06;8.15;;;6.68;;
13147;SDS011;6639;50.956;4.242;2023-04-24T02:01:35;8.00;;;7.25;;
13147;SDS011;6639;50.956;4.242;2023-04-24T02:04:03;7.80;;;7.05;;
13147;SDS011;6639;50.956;4.242;2023-04-24T02:06:30;8.55;;;7.30;;
13147;SDS011;6639;50.956;4.242;2023-04-24T02:08:57;8.43;;;7.63;;
13147;SDS011;6639;50.956;4.242;2023-04-24T02:11:24;8.00;;;7.20;;
13147;SDS011;6639;50.956;4.242;2023-04-24T02:13:52;9.38;;;8.30;;
13147;SDS011;6639;50.956;4.242;2023-04-24T02:16:19;9.32;;;8.20;;
13147;SDS011;6639;50.956;4.242;2023-04-24T02:18:46;8.93;;;8.02;;
13147;SDS011;6639;50.956;4.242;2023-04-24T02:21:13;9.98;;;9.07;;
13147;SDS011;6639;50.956;4.242;2023-04-24T02:23:40;9.15;;;8.25;;
13147;SDS011;6639;50.956;4.242;2023-04-24T02:26:07;10.13;;;9.10;;
13147;SDS011;6639;50.956;4.242;2023-04-24T02:28:34;11.23;;;9.43;;
13147;SDS011;6639;50.956;4.242;2023-04-24T02:31:02;10.38;;;9.38;;
13147;SDS011;6639;50.956;4.242;2023-04-24T02:33:30;11.50;;;10.40;;
13147;SDS011;6639;50.956;4.242;2023-04-24T02:35:57;12.02;;;10.80;;
13147;SDS011;6639;50.956;4.242;2023-04-24T02:38:24;12.82;;;10.30;;
13147;SDS011;6639;50.956;4.242;2023-04-24T02:40:51;13.35;;;9.98;;
13147;SDS011;6639;50.956;4.242;2023-04-24T02:43:18;13.85;;;9.73;;
13147;SDS011;6639;50.956;4.242;2023-04-24T02:45:45;13.68;;;10.73;;
13147;SDS011;6639;50.956;4.242;2023-04-24T02:48:13;13.75;;;10.05;;
13147;SDS011;6639;50.956;4.242;2023-04-24T02:50:40;11.73;;;10.30;;
13147;SDS011;6639;50.956;4.242;2023-04-24T02:53:07;11.45;;;10.25;;
13147;SDS011;6639;50.956;4.242;2023-04-24T02:55:34;12.07;;;10.88;;
13147;SDS011;6639;50.956;4.242;2023-04-24T02:58:01;13.02;;;10.48;;
13147;SDS011;6639;50.956;4.242;2023-04-24T03:00:28;11.80;;;9.07;;
13147;SDS011;6639;50.956;4.242;2023-04-24T03:02:54;11.18;;;9.55;;
13147;SDS011;6639;50.956;4.242;2023-04-24T03:05:23;11.13;;;9.73;;
13147;SDS011;6639;50.956;4.242;2023-04-24T03:07:50;13.02;;;10.25;;
13147;SDS011;6639;50.956;4.242;2023-04-24T03:10:18;13.73;;;10.32;;
13147;SDS011;6639;50.956;4.242;2023-04-24T03:12:45;11.95;;;9.90;;
13147;SDS011;6639;50.956;4.242;2023-04-24T03:15:12;12.07;;;10.30;;
13147;SDS011;6639;50.956;4.242;2023-04-24T03:17:39;9.45;;;8.55;;
13147;SDS011;6639;50.956;4.242;2023-04-24T03:20:06;12.43;;;9.60;;
13147;SDS011;6639;50.956;4.242;2023-04-24T03:22:35;10.43;;;8.43;;
13147;SDS011;6639;50.956;4.242;2023-04-24T03:25:02;9.52;;;8.55;;
13147;SDS011;6639;50.956;4.242;2023-04-24T03:27:30;8.60;;;7.78;;
13147;SDS011;6639;50.956;4.242;2023-04-24T03:29:57;9.23;;;8.32;;
13147;SDS011;6639;50.956;4.242;2023-04-24T03:32:23;8.98;;;8.13;;
13147;SDS011;6639;50.956;4.242;2023-04-24T03:34:50;8.93;;;8.00;;
13147;SDS011;6639;50.956;4.242;2023-04-24T03:37:17;8.93;;;8.02;;
13147;SDS011;6639;50.956;4.242;2023-04-24T03:39:45;7.65;;;6.95;;
13147;SDS011;6639;50.956;4.242;2023-04-24T03:42:12;7.45;;;6.80;;
13147;SDS011;6639;50.956;4.242;2023-04-24T03:44:40;7.25;;;6.43;;
13147;SDS011;6639;50.956;4.242;2023-04-24T03:47:06;7.57;;;6.88;;
13147;SDS011;6639;50.956;4.242;2023-04-24T03:49:33;6.97;;;6.07;;
13147;SDS011;6639;50.956;4.242;2023-04-24T03:52:00;7.55;;;6.38;;
13147;SDS011;6639;50.956;4.242;2023-04-24T03:54:27;7.72;;;6.72;;
13147;SDS011;6639;50.956;4.242;2023-04-24T03:56:55;7.57;;;6.78;;
13147;SDS011;6639;50.956;4.242;2023-04-24T03:59:23;7.50;;;6.63;;
13147;SDS011;6639;50.956;4.242;2023-04-24T04:01:49;6.55;;;5.95;;
13147;SDS011;6639;50.956;4.242;2023-04-24T04:04:16;6.50;;;6.00;;
13147;SDS011;6639;50.956;4.242;2023-04-24T04:06:43;6.28;;;5.63;;
13147;SDS011;6639;50.956;4.242;2023-04-24T04:09:11;7.85;;;5.53;;
13147;SDS011;6639;50.956;4.242;2023-04-24T04:11:38;6.20;;;5.40;;
13147;SDS011;6639;50.956;4.242;2023-04-24T04:14:06;5.53;;;5.05;;
13147;SDS011;6639;50.956;4.242;2023-04-24T04:16:33;6.68;;;5.65;;
13147;SDS011;6639;50.956;4.242;2023-04-24T04:19:01;7.30;;;6.60;;
13147;SDS011;6639;50.956;4.242;2023-04-24T04:21:28;6.10;;;5.40;;
13147;SDS011;6639;50.956;4.242;2023-04-24T04:23:55;8.30;;;6.35;;
13147;SDS011;6639;50.956;4.242;2023-04-24T04:26:22;7.05;;;6.45;;
13147;SDS011;6639;50.956;4.242;2023-04-24T04:28:50;9.60;;;7.38;;
13147;SDS011;6639;50.956;4.242;2023-04-24T04:31:18;8.48;;;7.55;;
13147;SDS011;6639;50.956;4.242;2023-04-24T04:33:46;10.48;;;8.63;;
13147;SDS011;6639;50.956;4.242;2023-04-24T04:36:12;9.38;;;7.70;;
13147;SDS011;6639;50.956;4.242;2023-04-24T04:38:39;9.13;;;7.72;;
13147;SDS011;6639;50.956;4.242;2023-04-24T04:41:08;9.23;;;7.57;;
13147;SDS011;6639;50.956;4.242;2023-04-24T04:43:34;12.25;;;8.82;;
13147;SDS011;6639;50.956;4.242;2023-04-24T04:46:01;12.13;;;9.00;;
13147;SDS011;6639;50.956;4.242;2023-04-24T04:48:30;10.30;;;8.25;;
13147;SDS011;6639;50.956;4.242;2023-04-24T04:50:57;9.68;;;8.60;;
13147;SDS011;6639;50.956;4.242;2023-04-24T04:53:24;13.75;;;9.48;;
13147;SDS011;6639;50.956;4.242;2023-04-24T04:55:51;11.18;;;9.15;;
13147;SDS011;6639;50.956;4.242;2023-04-24T04:58:18;10.60;;;8.80;;
13147;SDS011;6639;50.956;4.242;2023-04-24T05:00:45;13.27;;;9.60;;
13147;SDS011;6639;50.956;4.242;2023-04-24T05:03:12;12.07;;;9.48;;
13147;SDS011;6639;50.956;4.242;2023-04-24T05:05:40;11.13;;;10.00;;
13147;SDS011;6639;50.956;4.242;2023-04-24T05:08:07;12.10;;;10.63;;
13147;SDS011;6639;50.956;4.242;2023-04-24T05:10:34;13.93;;;10.13;;
13147;SDS011;6639;50.956;4.242;2023-04-24T05:13:02;12.32;;;10.45;;
13147;SDS011;6639;50.956;4.242;2023-04-24T05:15:29;14.73;;;9.95;;
13147;SDS011;6639;50.956;4.242;2023-04-24T05:17:56;11.23;;;9.35;;
13147;SDS011;6639;50.956;4.242;2023-04-24T05:20:23;12.75;;;9.60;;
13147;SDS011;6639;50.956;4.242;2023-04-24T05:22:51;17.15;;;10.48;;
13147;SDS011;6639;50.956;4.242;2023-04-24T05:25:18;13.57;;;10.55;;
13147;SDS011;6639;50.956;4.242;2023-04-24T05:27:46;14.63;;;10.60;;
13147;SDS011;6639;50.956;4.242;2023-04-24T05:30:13;13.00;;;11.10;;
13147;SDS011;6639;50.956;4.242;2023-04-24T05:32:40;13.90;;;10.73;;
13147;SDS011;6639;50.956;4.242;2023-04-24T05:35:07;13.90;;;11.18;;
13147;SDS011;6639;50.956;4.242;2023-04-24T05:37:34;14.75;;;11.32;;
13147;SDS011;6639;50.956;4.242;2023-04-24T05:40:03;14.55;;;11.60;;
13147;SDS011;6639;50.956;4.242;2023-04-24T05:42:31;13.48;;;11.18;;
13147;SDS011;6639;50.956;4.242;2023-04-24T05:44:58;14.77;;;12.10;;
13147;SDS011;6639;50.956;4.242;2023-04-24T05:47:24;12.80;;;11.50;;
13147;SDS011;6639;50.956;4.242;2023-04-24T05:49:52;12.75;;;10.70;;
13147;SDS011;6639;50.956;4.242;2023-04-24T05:52:19;15.88;;;11.68;;
13147;SDS011;6639;50.956;4.242;2023-04-24T05:54:46;14.60;;;11.55;;
13147;SDS011;6639;50.956;4.242;2023-04-24T05:57:14;13.82;;;11.38;;
13147;SDS011;6639;50.956;4.242;2023-04-24T05:59:41;14.93;;;11.13;;
13147;SDS011;6639;50.956;4.242;2023-04-24T06:02:08;14.15;;;11.57;;
13147;SDS011;6639;50.956;4.242;2023-04-24T06:04:35;17.67;;;12.25;;
13147;SDS011;6639;50.956;4.242;2023-04-24T06:07:02;13.95;;;12.10;;
13147;SDS011;6639;50.956;4.242;2023-04-24T06:09:28;13.10;;;11.75;;
13147;SDS011;6639;50.956;4.242;2023-04-24T06:11:55;14.40;;;11.32;;
13147;SDS011;6639;50.956;4.242;2023-04-24T06:14:24;16.00;;;12.30;;
13147;SDS011;6639;50.956;4.242;2023-04-24T06:16:51;14.68;;;11.45;;
13147;SDS011;6639;50.956;4.242;2023-04-24T06:19:18;16.52;;;11.55;;
13147;SDS011;6639;50.956;4.242;2023-04-24T06:21:45;17.55;;;12.75;;
13147;SDS011;6639;50.956;4.242;2023-04-24T06:24:13;13.60;;;12.05;;
13147;SDS011;6639;50.956;4.242;2023-04-24T06:26:41;18.48;;;12.65;;
13147;SDS011;6639;50.956;4.242;2023-04-24T06:29:08;20.30;;;13.20;;
13147;SDS011;6639;50.956;4.242;2023-04-24T06:31:36;16.00;;;13.13;;
13147;SDS011;6639;50.956;4.242;2023-04-24T06:34:03;18.63;;;13.73;;
13147;SDS011;6639;50.956;4.242;2023-04-24T06:36:30;18.77;;;14.35;;
13147;SDS011;6639;50.956;4.242;2023-04-24T06:38:59;18.95;;;14.15;;
13147;SDS011;6639;50.956;4.242;2023-04-24T06:41:26;17.50;;;14.60;;
13147;SDS011;6639;50.956;4.242;2023-04-24T06:43:54;19.42;;;14.95;;
13147;SDS011;6639;50.956;4.242;2023-04-24T06:46:21;15.90;;;13.85;;
13147;SDS011;6639;50.956;4.242;2023-04-24T06:48:52;17.73;;;14.25;;
13147;SDS011;6639;50.956;4.242;2023-04-24T06:51:21;20.98;;;14.70;;
13147;SDS011;6639;50.956;4.242;2023-04-24T06:53:48;15.95;;;13.60;;
13147;SDS011;6639;50.956;4.242;2023-04-24T06:56:18;24.63;;;15.70;;
13147;SDS011;6639;50.956;4.242;2023-04-24T06:58:45;19.40;;;15.55;;
13147;SDS011;6639;50.956;4.242;2023-04-24T07:01:12;18.92;;;14.15;;
13147;SDS011;6639;50.956;4.242;2023-04-24T07:03:39;23.75;;;15.07;;
13147;SDS011;6639;50.956;4.242;2023-04-24T07:06:08;20.23;;;14.60;;
13147;SDS011;6639;50.956;4.242;2023-04-24T07:08:36;19.05;;;14.98;;
13147;SDS011;6639;50.956;4.242;2023-04-24T07:11:03;21.23;;;14.88;;
13147;SDS011;6639;50.956;4.242;2023-04-24T07:13:30;19.50;;;14.10;;
13147;SDS011;6639;50.956;4.242;2023-04-24T07:15:57;19.05;;;13.02;;
13147;SDS011;6639;50.956;4.242;2023-04-24T07:18:24;18.85;;;12.35;;
13147;SDS011;6639;50.956;4.242;2023-04-24T07:20:51;17.10;;;13.13;;
13147;SDS011;6639;50.956;4.242;2023-04-24T07:23:19;15.45;;;12.20;;
13147;SDS011;6639;50.956;4.242;2023-04-24T07:25:46;15.80;;;11.27;;
13147;SDS011;6639;50.956;4.242;2023-04-24T07:28:13;15.55;;;11.43;;
13147;SDS011;6639;50.956;4.242;2023-04-24T07:30:40;15.85;;;9.95;;
13147;SDS011;6639;50.956;4.242;2023-04-24T07:33:07;16.15;;;9.25;;
13147;SDS011;6639;50.956;4.242;2023-04-24T07:35:36;11.30;;;8.77;;
13147;SDS011;6639;50.956;4.242;2023-04-24T07:38:03;9.68;;;8.65;;
13147;SDS011;6639;50.956;4.242;2023-04-24T07:40:31;14.65;;;9.10;;
13147;SDS011;6639;50.956;4.242;2023-04-24T07:42:58;13.30;;;8.90;;
13147;SDS011;6639;50.956;4.242;2023-04-24T07:45:25;14.75;;;10.05;;
13147;SDS011;6639;50.956;4.242;2023-04-24T07:47:53;14.43;;;9.40;;
13147;SDS011;6639;50.956;4.242;2023-04-24T07:50:20;14.00;;;9.35;;
13147;SDS011;6639;50.956;4.242;2023-04-24T07:52:47;12.05;;;8.70;;
13147;SDS011;6639;50.956;4.242;2023-04-24T07:55:14;14.10;;;9.20;;
13147;SDS011;6639;50.956;4.242;2023-04-24T07:57:43;13.82;;;9.32;;
13147;SDS011;6639;50.956;4.242;2023-04-24T08:00:10;17.15;;;9.43;;
13147;SDS011;6639;50.956;4.242;2023-04-24T08:02:38;15.90;;;9.00;;
13147;SDS011;6639;50.956;4.242;2023-04-24T08:05:05;13.32;;;8.98;;
13147;SDS011;6639;50.956;4.242;2023-04-24T08:07:32;12.45;;;8.50;;
13147;SDS011;6639;50.956;4.242;2023-04-24T08:10:00;13.55;;;9.07;;
13147;SDS011;6639;50.956;4.242;2023-04-24T08:12:27;15.35;;;9.00;;
13147;SDS011;6639;50.956;4.242;2023-04-24T08:14:56;9.65;;;7.60;;
13147;SDS011;6639;50.956;4.242;2023-04-24T08:17:23;11.23;;;7.57;;
13147;SDS011;6639;50.956;4.242;2023-04-24T08:19:50;16.40;;;8.02;;
13147;SDS011;6639;50.956;4.242;2023-04-24T08:22:24;11.88;;;7.05;;
13147;SDS011;6639;50.956;4.242;2023-04-24T08:24:51;9.32;;;5.88;;
13147;SDS011;6639;50.956;4.242;2023-04-24T08:27:18;14.30;;;6.63;;
13147;SDS011;6639;50.956;4.242;2023-04-24T08:29:45;12.68;;;6.45;;
13147;SDS011;6639;50.956;4.242;2023-04-24T08:32:13;8.88;;;6.20;;
13147;SDS011;6639;50.956;4.242;2023-04-24T08:34:40;9.57;;;5.95;;
13147;SDS011;6639;50.956;4.242;2023-04-24T08:37:07;8.43;;;5.47;;
13147;SDS011;6639;50.956;4.242;2023-04-24T08:39:34;12.48;;;7.35;;
13147;SDS011;6639;50.956;4.242;2023-04-24T08:42:01;11.90;;;6.40;;
13147;SDS011;6639;50.956;4.242;2023-04-24T08:44:33;8.75;;;6.78;;
13147;SDS011;6639;50.956;4.242;2023-04-24T08:47:01;12.88;;;6.30;;
13147;SDS011;6639;50.956;4.242;2023-04-24T08:49:30;14.23;;;6.28;;
13147;SDS011;6639;50.956;4.242;2023-04-24T08:51:57;10.70;;;5.43;;
13147;SDS011;6639;50.956;4.242;2023-04-24T08:54:25;7.80;;;5.40;;
13147;SDS011;6639;50.956;4.242;2023-04-24T08:56:53;9.98;;;5.55;;
13147;SDS011;6639;50.956;4.242;2023-04-24T08:59:26;7.15;;;4.75;;
13147;SDS011;6639;50.956;4.242;2023-04-24T09:01:53;10.32;;;5.43;;
13147;SDS011;6639;50.956;4.242;2023-04-24T09:04:22;8.40;;;5.13;;
13147;SDS011;6639;50.956;4.242;2023-04-24T09:06:51;7.57;;;4.85;;
13147;SDS011;6639;50.956;4.242;2023-04-24T09:09:20;14.55;;;5.78;;
13147;SDS011;6639;50.956;4.242;2023-04-24T09:11:48;8.07;;;4.53;;
13147;SDS011;6639;50.956;4.242;2023-04-24T09:14:16;7.85;;;4.20;;
13147;SDS011;6639;50.956;4.242;2023-04-24T09:16:43;9.07;;;4.40;;
13147;SDS011;6639;50.956;4.242;2023-04-24T09:19:10;13.05;;;4.05;;
13147;SDS011;6639;50.956;4.242;2023-04-24T09:21:37;11.02;;;4.30;;
13147;SDS011;6639;50.956;4.242;2023-04-24T09:24:07;4.88;;;3.20;;
13147;SDS011;6639;50.956;4.242;2023-04-24T09:26:42;5.57;;;3.40;;
13147;SDS011;6639;50.956;4.242;2023-04-24T09:29:13;5.57;;;3.70;;
13147;SDS011;6639;50.956;4.242;2023-04-24T09:31:41;5.72;;;3.25;;
13147;SDS011;6639;50.956;4.242;2023-04-24T09:34:08;7.35;;;3.50;;
13147;SDS011;6639;50.956;4.242;2023-04-24T09:36:36;7.22;;;4.13;;
13147;SDS011;6639;50.956;4.242;2023-04-24T09:39:04;8.32;;;3.78;;
13147;SDS011;6639;50.956;4.242;2023-04-24T09:41:36;8.02;;;3.55;;
13147;SDS011;6639;50.956;4.242;2023-04-24T09:44:10;5.55;;;3.92;;
13147;SDS011;6639;50.956;4.242;2023-04-24T09:46:38;7.18;;;4.03;;
13147;SDS011;6639;50.956;4.242;2023-04-24T09:49:07;7.13;;;3.92;;
13147;SDS011;6639;50.956;4.242;2023-04-24T09:51:36;9.20;;;4.15;;
13147;SDS011;6639;50.956;4.242;2023-04-24T09:54:05;8.23;;;4.13;;
13147;SDS011;6639;50.956;4.242;2023-04-24T09:56:42;8.60;;;4.30;;
13147;SDS011;6639;50.956;4.242;2023-04-24T09:59:10;10.07;;;4.13;;
13147;SDS011;6639;50.956;4.242;2023-04-24T10:01:37;8.15;;;4.47;;
13147;SDS011;6639;50.956;4.242;2023-04-24T10:04:14;8.00;;;4.10;;
13147;SDS011;6639;50.956;4.242;2023-04-24T10:06:43;7.85;;;3.92;;
13147;SDS011;6639;50.956;4.242;2023-04-24T10:09:10;8.23;;;4.28;;
13147;SDS011;6639;50.956;4.242;2023-04-24T10:11:41;5.85;;;4.13;;
13147;SDS011;6639;50.956;4.242;2023-04-24T10:14:10;5.90;;;4.07;;
13147;SDS011;6639;50.956;4.242;2023-04-24T10:16:39;7.38;;;3.97;;
13147;SDS011;6639;50.956;4.242;2023-04-24T10:19:06;5.53;;;4.57;;
13147;SDS011;6639;50.956;4.242;2023-04-24T10:21:34;6.70;;;4.45;;
13147;SDS011;6639;50.956;4.242;2023-04-24T10:24:02;7.38;;;4.63;;
13147;SDS011;6639;50.956;4.242;2023-04-24T10:26:32;7.30;;;4.28;;
13147;SDS011;6639;50.956;4.242;2023-04-24T10:29:01;8.93;;;4.13;;
13147;SDS011;6639;50.956;4.242;2023-04-24T10:31:30;10.50;;;4.32;;
13147;SDS011;6639;50.956;4.242;2023-04-24T10:33:58;6.50;;;4.82;;
13147;SDS011;6639;50.956;4.242;2023-04-24T10:36:27;5.70;;;3.63;;
13147;SDS011;6639;50.956;4.242;2023-04-24T10:38:58;7.32;;;3.97;;
13147;SDS011;6639;50.956;4.242;2023-04-24T10:41:27;13.38;;;4.35;;
13147;SDS011;6639;50.956;4.242;2023-04-24T10:44:06;8.80;;;4.18;;
13147;SDS011;6639;50.956;4.242;2023-04-24T10:46:34;5.45;;;3.88;;
13147;SDS011;6639;50.956;4.242;2023-04-24T10:49:03;6.82;;;3.80;;
13147;SDS011;6639;50.956;4.242;2023-04-24T10:51:44;7.55;;;4.20;;
13147;SDS011;6639;50.956;4.242;2023-04-24T10:54:23;5.53;;;4.03;;
13147;SDS011;6639;50.956;4.242;2023-04-24T10:56:51;7.55;;;3.65;;
13147;SDS011;6639;50.956;4.242;2023-04-24T10:59:25;6.97;;;3.78;;
13147;SDS011;6639;50.956;4.242;2023-04-24T11:01:54;6.80;;;4.20;;
13147;SDS011;6639;50.956;4.242;2023-04-24T11:04:30;5.95;;;3.53;;
13147;SDS011;6639;50.956;4.242;2023-04-24T11:07:00;7.47;;;4.22;;
13147;SDS011;6639;50.956;4.242;2023-04-24T11:09:27;6.55;;;3.72;;
13147;SDS011;6639;50.956;4.242;2023-04-24T11:12:02;4.95;;;3.88;;
13147;SDS011;6639;50.956;4.242;2023-04-24T11:14:40;9.02;;;4.47;;
13147;SDS011;6639;50.956;4.242;2023-04-24T11:17:28;4.18;;;3.78;;
13147;SDS011;6639;50.956;4.242;2023-04-24T11:20:00;5.90;;;4.30;;
13147;SDS011;6639;50.956;4.242;2023-04-24T11:22:28;5.38;;;3.75;;
13147;SDS011;6639;50.956;4.242;2023-04-24T11:24:59;7.95;;;4.00;;
13147;SDS011;6639;50.956;4.242;2023-04-24T11:27:29;7.07;;;3.97;;
13147;SDS011;6639;50.956;4.242;2023-04-24T11:30:03;6.75;;;4.00;;
13147;SDS011;6639;50.956;4.242;2023-04-24T11:32:34;4.32;;;3.92;;
13147;SDS011;6639;50.956;4.242;2023-04-24T11:35:03;5.40;;;4.60;;
13147;SDS011;6639;50.956;4.242;2023-04-24T11:37:33;6.03;;;4.28;;
13147;SDS011;6639;50.956;4.242;2023-04-24T11:40:03;6.30;;;3.85;;
13147;SDS011;6639;50.956;4.242;2023-04-24T11:42:34;8.40;;;3.97;;
13147;SDS011;6639;50.956;4.242;2023-04-24T11:45:06;4.72;;;3.67;;
13147;SDS011;6639;50.956;4.242;2023-04-24T11:47:35;5.88;;;3.90;;
13147;SDS011;6639;50.956;4.242;2023-04-24T11:50:02;4.43;;;3.65;;
13147;SDS011;6639;50.956;4.242;2023-04-24T11:52:31;4.07;;;3.35;;
13147;SDS011;6639;50.956;4.242;2023-04-24T11:54:59;4.47;;;4.07;;
13147;SDS011;6639;50.956;4.242;2023-04-24T11:57:26;4.95;;;3.75;;
13147;SDS011;6639;50.956;4.242;2023-04-24T11:59:58;6.32;;;4.10;;
13147;SDS011;6639;50.956;4.242;2023-04-24T12:02:26;4.57;;;4.07;;
13147;SDS011;6639;50.956;4.242;2023-04-24T12:04:54;4.13;;;3.83;;
13147;SDS011;6639;50.956;4.242;2023-04-24T12:07:21;6.05;;;4.00;;
13147;SDS011;6639;50.956;4.242;2023-04-24T12:09:54;11.63;;;4.20;;
13147;SDS011;6639;50.956;4.242;2023-04-24T12:12:24;5.07;;;3.20;;
13147;SDS011;6639;50.956;4.242;2023-04-24T12:14:52;5.18;;;4.00;;
13147;SDS011;6639;50.956;4.242;2023-04-24T12:17:24;5.18;;;3.58;;
13147;SDS011;6639;50.956;4.242;2023-04-24T12:19:56;7.20;;;4.53;;
13147;SDS011;6639;50.956;4.242;2023-04-24T12:22:25;7.20;;;4.20;;
13147;SDS011;6639;50.956;4.242;2023-04-24T12:24:55;4.35;;;3.92;;
13147;SDS011;6639;50.956;4.242;2023-04-24T12:27:23;4.90;;;3.55;;
13147;SDS011;6639;50.956;4.242;2023-04-24T12:29:51;5.82;;;3.75;;
13147;SDS011;6639;50.956;4.242;2023-04-24T12:32:18;13.70;;;4.68;;
13147;SDS011;6639;50.956;4.242;2023-04-24T12:34:47;6.53;;;4.22;;
13147;SDS011;6639;50.956;4.242;2023-04-24T12:37:15;6.28;;;4.07;;
13147;SDS011;6639;50.956;4.242;2023-04-24T12:39:44;5.18;;;3.67;;
13147;SDS011;6639;50.956;4.242;2023-04-24T12:42:25;5.10;;;3.50;;
13147;SDS011;6639;50.956;4.242;2023-04-24T12:44:55;5.45;;;3.33;;
13147;SDS011;6639;50.956;4.242;2023-04-24T12:47:23;4.60;;;3.22;;
13147;SDS011;6639;50.956;4.242;2023-04-24T12:49:51;3.42;;;2.90;;
13147;SDS011;6639;50.956;4.242;2023-04-24T12:52:20;4.97;;;2.60;;
13147;SDS011;6639;50.956;4.242;2023-04-24T12:54:47;5.30;;;2.53;;
13147;SDS011;6639;50.956;4.242;2023-04-24T12:57:14;5.75;;;3.10;;
13147;SDS011;6639;50.956;4.242;2023-04-24T12:59:41;4.75;;;2.20;;
13147;SDS011;6639;50.956;4.242;2023-04-24T13:02:08;4.85;;;2.30;;
13147;SDS011;6639;50.956;4.242;2023-04-24T13:04:36;3.83;;;2.00;;
13147;SDS011;6639;50.956;4.242;2023-04-24T13:07:04;4.60;;;2.30;;
13147;SDS011;6639;50.956;4.242;2023-04-24T13:09:31;3.17;;;2.42;;
13147;SDS011;6639;50.956;4.242;2023-04-24T13:12:00;4.78;;;2.67;;
13147;SDS011;6639;50.956;4.242;2023-04-24T13:14:27;3.50;;;2.05;;
13147;SDS011;6639;50.956;4.242;2023-04-24T13:16:55;4.68;;;2.30;;
13147;SDS011;6639;50.956;4.242;2023-04-24T13:19:38;2.50;;;2.28;;
13147;SDS011;6639;50.956;4.242;2023-04-24T13:22:08;3.45;;;2.40;;
13147;SDS011;6639;50.956;4.242;2023-04-24T13:24:36;3.00;;;2.13;;
13147;SDS011;6639;50.956;4.242;2023-04-24T13:27:05;3.35;;;2.10;;
13147;SDS011;6639;50.956;4.242;2023-04-24T13:29:33;3.67;;;2.20;;
13147;SDS011;6639;50.956;4.242;2023-04-24T13:32:00;3.42;;;2.13;;
13147;SDS011;6639;50.956;4.242;2023-04-24T13:34:27;2.25;;;2.08;;
13147;SDS011;6639;50.956;4.242;2023-04-24T13:37:01;4.82;;;2.22;;
13147;SDS011;6639;50.956;4.242;2023-04-24T13:39:30;2.15;;;1.95;;
13147;SDS011;6639;50.956;4.242;2023-04-24T13:41:58;2.55;;;1.83;;
13147;SDS011;6639;50.956;4.242;2023-04-24T13:44:25;4.53;;;2.13;;
13147;SDS011;6639;50.956;4.242;2023-04-24T13:46:53;3.17;;;1.92;;
13147;SDS011;6639;50.956;4.242;2023-04-24T13:49:22;4.40;;;2.40;;
13147;SDS011;6639;50.956;4.242;2023-04-24T13:51:51;4.00;;;2.15;;
13147;SDS011;6639;50.956;4.242;2023-04-24T13:54:20;4.30;;;1.77;;
13147;SDS011;6639;50.956;4.242;2023-04-24T13:56:50;3.58;;;1.85;;
13147;SDS011;6639;50.956;4.242;2023-04-24T13:59:18;1.50;;;1.35;;
13147;SDS011;6639;50.956;4.242;2023-04-24T14:01:46;2.72;;;1.55;;
13147;SDS011;6639;50.956;4.242;2023-04-24T14:04:13;3.17;;;1.85;;
13147;SDS011;6639;50.956;4.242;2023-04-24T14:06:40;4.40;;;1.92;;
13147;SDS011;6639;50.956;4.242;2023-04-24T14:09:07;2.47;;;1.48;;
13147;SDS011;6639;50.956;4.242;2023-04-24T14:11:34;2.17;;;1.52;;
13147;SDS011;6639;50.956;4.242;2023-04-24T14:14:03;3.80;;;1.55;;
13147;SDS011;6639;50.956;4.242;2023-04-24T14:16:30;3.13;;;1.52;;
13147;SDS011;6639;50.956;4.242;2023-04-24T14:19:00;1.90;;;1.58;;
13147;SDS011;6639;50.956;4.242;2023-04-24T14:21:27;2.70;;;1.65;;
13147;SDS011;6639;50.956;4.242;2023-04-24T14:23:55;3.03;;;1.67;;
13147;SDS011;6639;50.956;4.242;2023-04-24T14:26:22;2.90;;;1.70;;
13147;SDS011;6639;50.956;4.242;2023-04-24T14:28:49;2.40;;;1.65;;
13147;SDS011;6639;50.956;4.242;2023-04-24T14:31:19;3.35;;;1.70;;
13147;SDS011;6639;50.956;4.242;2023-04-24T14:33:48;2.25;;;1.83;;
13147;SDS011;6639;50.956;4.242;2023-04-24T14:36:16;5.07;;;1.45;;
13147;SDS011;6639;50.956;4.242;2023-04-24T14:38:46;3.20;;;1.80;;
13147;SDS011;6639;50.956;4.242;2023-04-24T14:41:16;3.00;;;1.70;;
13147;SDS011;6639;50.956;4.242;2023-04-24T14:43:43;3.80;;;1.77;;
13147;SDS011;6639;50.956;4.242;2023-04-24T14:46:10;2.30;;;1.40;;
13147;SDS011;6639;50.956;4.242;2023-04-24T14:48:39;1.70;;;1.60;;
13147;SDS011;6639;50.956;4.242;2023-04-24T14:51:06;2.17;;;1.38;;
13147;SDS011;6639;50.956;4.242;2023-04-24T14:53:33;3.25;;;1.40;;
13147;SDS011;6639;50.956;4.242;2023-04-24T14:56:00;2.08;;;1.50;;